sensor_id;sensor_type;location;lat;lon;timestamp;pressure;altitude;pressure_sealevel;temperature;humidity
3598;BME280;1813;52.016;8.714;2024-03-08T00:02:08;-16261.94;;;-139.71;84.15
3598;BME280;1813;52.016;8.714;2024-03-08T00:04:44;-16261.94;;;-139.71;84.10
3598;BME280;1813;52.016;8.714;2024-03-08T00:07:17;-16261.94;;;-139.71;84.32
3598;BME280;1813;52.016;8.714;2024-03-08T00:09:51;-16261.94;;;-139.71;84.57
3598;BME280;1813;52.016;8.714;2024-03-08T00:12:24;-16261.94;;;-139.71;84.69
3598;BME280;1813;52.016;8.714;2024-03-08T00:14:58;-16261.94;;;-139.71;84.70
3598;BME280;1813;52.016;8.714;2024-03-08T00:17:31;-16261.94;;;-139.71;84.86
3598;BME280;1813;52.016;8.714;2024-03-08T00:20:08;-16261.94;;;-139.71;84.69
3598;BME280;1813;52.016;8.714;2024-03-08T00:22:41;-16261.94;;;-139.71;84.61
3598;BME280;1813;52.016;8.714;2024-03-08T00:25:15;-16261.94;;;-139.71;84.65
3598;BME280;1813;52.016;8.714;2024-03-08T00:27:49;-16261.94;;;-139.71;84.67
3598;BME280;1813;52.016;8.714;2024-03-08T00:30:26;-16261.94;;;-139.71;85.04
3598;BME280;1813;52.016;8.714;2024-03-08T00:32:59;-16261.94;;;-139.71;84.62
3598;BME280;1813;52.016;8.714;2024-03-08T00:35:36;-16261.94;;;-139.71;84.60
3598;BME280;1813;52.016;8.714;2024-03-08T00:38:09;-16261.94;;;-139.71;84.58
3598;BME280;1813;52.016;8.714;2024-03-08T00:40:43;-16261.94;;;-139.71;84.35
3598;BME280;1813;52.016;8.714;2024-03-08T00:43:17;-16261.94;;;-139.71;83.97
3598;BME280;1813;52.016;8.714;2024-03-08T00:45:52;-16261.94;;;-139.71;83.72
3598;BME280;1813;52.016;8.714;2024-03-08T00:48:26;-16261.94;;;-139.71;83.60
3598;BME280;1813;52.016;8.714;2024-03-08T00:51:04;-16261.94;;;-139.71;83.51
3598;BME280;1813;52.016;8.714;2024-03-08T00:53:37;-16261.94;;;-139.71;83.63
3598;BME280;1813;52.016;8.714;2024-03-08T00:56:10;-16261.94;;;-139.71;83.29
3598;BME280;1813;52.016;8.714;2024-03-08T00:58:44;-16261.94;;;-139.71;83.34
3598;BME280;1813;52.016;8.714;2024-03-08T01:01:18;-16261.94;;;-139.71;83.15
3598;BME280;1813;52.016;8.714;2024-03-08T01:03:52;-16261.94;;;-139.71;83.03
3598;BME280;1813;52.016;8.714;2024-03-08T01:06:28;-16261.94;;;-139.71;82.84
3598;BME280;1813;52.016;8.714;2024-03-08T01:09:02;-16261.94;;;-139.71;82.72
3598;BME280;1813;52.016;8.714;2024-03-08T01:11:37;-16261.94;;;-139.71;82.56
3598;BME280;1813;52.016;8.714;2024-03-08T01:14:12;-16261.94;;;-139.71;82.83
3598;BME280;1813;52.016;8.714;2024-03-08T01:16:45;-16261.94;;;-139.71;83.16
3598;BME280;1813;52.016;8.714;2024-03-08T01:19:19;-16261.94;;;-139.71;82.72
3598;BME280;1813;52.016;8.714;2024-03-08T01:21:55;-16261.94;;;-139.71;82.18
3598;BME280;1813;52.016;8.714;2024-03-08T01:24:28;-16261.94;;;-139.71;82.54
3598;BME280;1813;52.016;8.714;2024-03-08T01:27:02;-16261.94;;;-139.71;82.42
3598;BME280;1813;52.016;8.714;2024-03-08T01:29:35;-16261.94;;;-139.71;82.39
3598;BME280;1813;52.016;8.714;2024-03-08T01:32:12;-16261.94;;;-139.71;81.99
3598;BME280;1813;52.016;8.714;2024-03-08T01:34:45;-16261.94;;;-139.71;82.27
3598;BME280;1813;52.016;8.714;2024-03-08T01:37:21;-16261.94;;;-139.71;82.28
3598;BME280;1813;52.016;8.714;2024-03-08T01:39:54;-16261.94;;;-139.71;81.97
3598;BME280;1813;52.016;8.714;2024-03-08T01:42:28;-16261.94;;;-139.71;81.92
3598;BME280;1813;52.016;8.714;2024-03-08T01:45:01;-16261.94;;;-139.71;81.85
3598;BME280;1813;52.016;8.714;2024-03-08T01:47:35;-16261.94;;;-139.71;82.27
3598;BME280;1813;52.016;8.714;2024-03-08T01:50:09;-16261.94;;;-139.71;82.41
3598;BME280;1813;52.016;8.714;2024-03-08T01:52:45;-16261.94;;;-139.71;82.40
3598;BME280;1813;52.016;8.714;2024-03-08T01:55:18;-16261.94;;;-139.71;82.57
3598;BME280;1813;52.016;8.714;2024-03-08T01:57:52;-16261.94;;;-139.71;82.72
3598;BME280;1813;52.016;8.714;2024-03-08T02:00:26;-16261.94;;;-139.71;82.46
3598;BME280;1813;52.016;8.714;2024-03-08T02:03:04;-16261.94;;;-139.71;82.46
3598;BME280;1813;52.016;8.714;2024-03-08T02:05:38;-16261.94;;;-139.71;82.64
3598;BME280;1813;52.016;8.714;2024-03-08T02:08:16;-16261.94;;;-139.71;82.59
3598;BME280;1813;52.016;8.714;2024-03-08T02:10:50;-16261.94;;;-139.71;81.67
3598;BME280;1813;52.016;8.714;2024-03-08T02:13:23;-16261.94;;;-139.71;82.16
3598;BME280;1813;52.016;8.714;2024-03-08T02:15:58;-16261.94;;;-139.71;81.72
3598;BME280;1813;52.016;8.714;2024-03-08T02:18:32;-16261.94;;;-139.71;81.87
3598;BME280;1813;52.016;8.714;2024-03-08T02:21:08;-16261.94;;;-139.71;82.60
3598;BME280;1813;52.016;8.714;2024-03-08T02:23:41;-16261.94;;;-139.71;83.01
3598;BME280;1813;52.016;8.714;2024-03-08T02:26:14;-16261.94;;;-139.71;82.67
3598;BME280;1813;52.016;8.714;2024-03-08T02:28:50;-16261.94;;;-139.71;82.93
3598;BME280;1813;52.016;8.714;2024-03-08T02:31:24;-16261.94;;;-139.71;82.32
3598;BME280;1813;52.016;8.714;2024-03-08T02:33:58;-16261.94;;;-139.71;82.89
3598;BME280;1813;52.016;8.714;2024-03-08T02:36:33;-16261.94;;;-139.71;83.08
3598;BME280;1813;52.016;8.714;2024-03-08T02:39:07;-16261.94;;;-139.71;82.96
3598;BME280;1813;52.016;8.714;2024-03-08T02:41:41;-16261.94;;;-139.71;83.37
3598;BME280;1813;52.016;8.714;2024-03-08T02:44:15;-16261.94;;;-139.71;83.48
3598;BME280;1813;52.016;8.714;2024-03-08T02:46:48;-16261.94;;;-139.71;83.64
3598;BME280;1813;52.016;8.714;2024-03-08T02:49:24;-16261.94;;;-139.71;84.01
3598;BME280;1813;52.016;8.714;2024-03-08T02:52:00;-16261.94;;;-139.71;83.68
3598;BME280;1813;52.016;8.714;2024-03-08T02:54:33;-16261.94;;;-139.71;83.34
3598;BME280;1813;52.016;8.714;2024-03-08T02:57:08;-16261.94;;;-139.71;83.72
3598;BME280;1813;52.016;8.714;2024-03-08T02:59:42;-16261.94;;;-139.71;84.04
3598;BME280;1813;52.016;8.714;2024-03-08T03:02:16;-16261.94;;;-139.71;84.32
3598;BME280;1813;52.016;8.714;2024-03-08T03:04:49;-16261.94;;;-139.71;84.49
3598;BME280;1813;52.016;8.714;2024-03-08T03:07:26;-16261.94;;;-139.71;84.97
3598;BME280;1813;52.016;8.714;2024-03-08T03:09:59;-16261.94;;;-139.71;85.27
3598;BME280;1813;52.016;8.714;2024-03-08T03:12:33;-16261.94;;;-139.71;85.80
3598;BME280;1813;52.016;8.714;2024-03-08T03:15:07;-16261.94;;;-139.71;86.07
3598;BME280;1813;52.016;8.714;2024-03-08T03:17:41;-16261.94;;;-139.71;86.62
3598;BME280;1813;52.016;8.714;2024-03-08T03:20:18;-16261.94;;;-139.71;87.43
3598;BME280;1813;52.016;8.714;2024-03-08T03:22:59;-16261.94;;;-139.71;87.98
3598;BME280;1813;52.016;8.714;2024-03-08T03:25:33;-16261.94;;;-139.71;87.97
3598;BME280;1813;52.016;8.714;2024-03-08T03:28:09;-16261.94;;;-139.71;88.68
3598;BME280;1813;52.016;8.714;2024-03-08T03:30:45;-16261.94;;;-139.71;88.85
3598;BME280;1813;52.016;8.714;2024-03-08T03:33:18;-16261.94;;;-139.71;89.36
3598;BME280;1813;52.016;8.714;2024-03-08T03:35:52;-16261.94;;;-139.71;89.53
3598;BME280;1813;52.016;8.714;2024-03-08T03:38:28;-16261.94;;;-139.71;89.84
3598;BME280;1813;52.016;8.714;2024-03-08T03:41:02;-16261.94;;;-139.71;89.72
3598;BME280;1813;52.016;8.714;2024-03-08T03:43:40;-16261.94;;;-139.71;89.78
3598;BME280;1813;52.016;8.714;2024-03-08T03:46:14;-16261.94;;;-139.71;89.81
3598;BME280;1813;52.016;8.714;2024-03-08T03:48:47;-16261.94;;;-139.71;89.53
3598;BME280;1813;52.016;8.714;2024-03-08T03:51:20;-16261.94;;;-139.71;89.40
3598;BME280;1813;52.016;8.714;2024-03-08T03:53:57;-16261.94;;;-139.71;89.38
3598;BME280;1813;52.016;8.714;2024-03-08T03:56:30;-16261.94;;;-139.71;89.26
3598;BME280;1813;52.016;8.714;2024-03-08T03:59:04;-16261.94;;;-139.71;89.36
3598;BME280;1813;52.016;8.714;2024-03-08T04:01:41;-16261.94;;;-139.71;89.25
3598;BME280;1813;52.016;8.714;2024-03-08T04:04:15;-16261.94;;;-139.71;88.95
3598;BME280;1813;52.016;8.714;2024-03-08T04:06:49;-16261.94;;;-139.71;88.78
3598;BME280;1813;52.016;8.714;2024-03-08T04:09:25;-16261.94;;;-139.71;88.57
3598;BME280;1813;52.016;8.714;2024-03-08T04:11:59;-16261.94;;;-139.71;88.29
3598;BME280;1813;52.016;8.714;2024-03-08T04:14:32;-16261.94;;;-139.71;88.02
3598;BME280;1813;52.016;8.714;2024-03-08T04:17:06;-16261.94;;;-139.71;87.90
3598;BME280;1813;52.016;8.714;2024-03-08T04:19:39;-16261.94;;;-139.71;87.86
3598;BME280;1813;52.016;8.714;2024-03-08T04:22:12;-16261.94;;;-139.71;87.70
3598;BME280;1813;52.016;8.714;2024-03-08T04:24:50;-16261.94;;;-139.71;87.69
3598;BME280;1813;52.016;8.714;2024-03-08T04:27:23;-16261.94;;;-139.71;87.62
3598;BME280;1813;52.016;8.714;2024-03-08T04:29:57;-16261.94;;;-139.71;87.71
3598;BME280;1813;52.016;8.714;2024-03-08T04:32:32;-16261.94;;;-139.71;87.68
3598;BME280;1813;52.016;8.714;2024-03-08T04:35:06;-16261.94;;;-139.71;87.49
3598;BME280;1813;52.016;8.714;2024-03-08T04:37:39;-16261.94;;;-139.71;87.56
3598;BME280;1813;52.016;8.714;2024-03-08T04:40:15;-16261.94;;;-139.71;87.68
3598;BME280;1813;52.016;8.714;2024-03-08T04:42:52;-16261.94;;;-139.71;87.88
3598;BME280;1813;52.016;8.714;2024-03-08T04:45:25;-16261.94;;;-139.71;87.96
3598;BME280;1813;52.016;8.714;2024-03-08T04:48:00;-16261.94;;;-139.71;88.16
3598;BME280;1813;52.016;8.714;2024-03-08T04:50:33;-16261.94;;;-139.71;88.00
3598;BME280;1813;52.016;8.714;2024-03-08T04:53:08;-16261.94;;;-139.71;88.08
3598;BME280;1813;52.016;8.714;2024-03-08T04:55:44;-16261.94;;;-139.71;87.93
3598;BME280;1813;52.016;8.714;2024-03-08T04:58:18;-16261.94;;;-139.71;87.99
3598;BME280;1813;52.016;8.714;2024-03-08T05:00:52;-16261.94;;;-139.71;87.82
3598;BME280;1813;52.016;8.714;2024-03-08T05:03:26;-16261.94;;;-139.71;87.85
3598;BME280;1813;52.016;8.714;2024-03-08T05:06:00;-16261.94;;;-139.71;88.06
3598;BME280;1813;52.016;8.714;2024-03-08T05:08:36;-16261.94;;;-139.71;88.13
3598;BME280;1813;52.016;8.714;2024-03-08T05:11:12;-16261.94;;;-139.71;88.23
3598;BME280;1813;52.016;8.714;2024-03-08T05:13:45;-16261.94;;;-139.71;88.33
3598;BME280;1813;52.016;8.714;2024-03-08T05:16:19;-16261.94;;;-139.71;88.20
3598;BME280;1813;52.016;8.714;2024-03-08T05:18:52;-16261.94;;;-139.71;88.03
3598;BME280;1813;52.016;8.714;2024-03-08T05:21:27;-16261.94;;;-139.71;87.93
3598;BME280;1813;52.016;8.714;2024-03-08T05:24:00;-16261.94;;;-139.71;88.11
3598;BME280;1813;52.016;8.714;2024-03-08T05:26:39;-16261.94;;;-139.71;87.90
3598;BME280;1813;52.016;8.714;2024-03-08T05:29:12;-16261.94;;;-139.71;87.93
3598;BME280;1813;52.016;8.714;2024-03-08T05:31:48;-16261.94;;;-139.71;88.01
3598;BME280;1813;52.016;8.714;2024-03-08T05:34:22;-16261.94;;;-139.71;88.39
3598;BME280;1813;52.016;8.714;2024-03-08T05:36:56;-16261.94;;;-139.71;88.58
3598;BME280;1813;52.016;8.714;2024-03-08T05:39:30;-16261.94;;;-139.71;88.83
3598;BME280;1813;52.016;8.714;2024-03-08T05:42:07;-16261.94;;;-139.71;88.90
3598;BME280;1813;52.016;8.714;2024-03-08T05:44:41;-16261.94;;;-139.71;89.03
3598;BME280;1813;52.016;8.714;2024-03-08T05:47:14;-16261.94;;;-139.71;89.10
3598;BME280;1813;52.016;8.714;2024-03-08T05:49:48;-16261.94;;;-139.71;89.26
3598;BME280;1813;52.016;8.714;2024-03-08T05:52:23;-16261.94;;;-139.71;89.25
3598;BME280;1813;52.016;8.714;2024-03-08T05:54:57;-16261.94;;;-139.71;89.28
3598;BME280;1813;52.016;8.714;2024-03-08T05:57:33;-16261.94;;;-139.71;89.29
3598;BME280;1813;52.016;8.714;2024-03-08T06:00:09;-16261.94;;;-139.71;89.21
3598;BME280;1813;52.016;8.714;2024-03-08T06:02:45;-16261.94;;;-139.71;89.16
3598;BME280;1813;52.016;8.714;2024-03-08T06:05:21;-16261.94;;;-139.71;89.26
3598;BME280;1813;52.016;8.714;2024-03-08T06:07:54;-16261.94;;;-139.71;89.41
3598;BME280;1813;52.016;8.714;2024-03-08T06:10:28;-16261.94;;;-139.71;89.57
3598;BME280;1813;52.016;8.714;2024-03-08T06:13:05;-16261.94;;;-139.71;89.66
3598;BME280;1813;52.016;8.714;2024-03-08T06:15:38;-16261.94;;;-139.71;89.65
3598;BME280;1813;52.016;8.714;2024-03-08T06:18:12;-16261.94;;;-139.71;89.64
3598;BME280;1813;52.016;8.714;2024-03-08T06:20:46;-16261.94;;;-139.71;89.71
3598;BME280;1813;52.016;8.714;2024-03-08T06:23:19;-16261.94;;;-139.71;89.59
3598;BME280;1813;52.016;8.714;2024-03-08T06:25:53;-16261.94;;;-139.71;89.45
3598;BME280;1813;52.016;8.714;2024-03-08T06:28:30;-16261.94;;;-139.71;89.46
3598;BME280;1813;52.016;8.714;2024-03-08T06:31:05;-16261.94;;;-139.71;89.30
3598;BME280;1813;52.016;8.714;2024-03-08T06:33:38;-16261.94;;;-139.71;89.41
3598;BME280;1813;52.016;8.714;2024-03-08T06:36:12;-16261.94;;;-139.71;88.99
3598;BME280;1813;52.016;8.714;2024-03-08T06:38:49;-16261.94;;;-139.71;88.71
3598;BME280;1813;52.016;8.714;2024-03-08T06:41:22;-16261.94;;;-139.71;88.57
3598;BME280;1813;52.016;8.714;2024-03-08T06:43:58;-16261.94;;;-139.71;88.41
3598;BME280;1813;52.016;8.714;2024-03-08T06:46:32;-16261.94;;;-139.71;88.43
3598;BME280;1813;52.016;8.714;2024-03-08T06:49:05;-16261.94;;;-139.71;88.55
3598;BME280;1813;52.016;8.714;2024-03-08T06:51:39;-16261.94;;;-139.71;88.76
3598;BME280;1813;52.016;8.714;2024-03-08T06:54:13;-16261.94;;;-139.71;88.88
3598;BME280;1813;52.016;8.714;2024-03-08T06:56:46;-16261.94;;;-139.71;88.97
3598;BME280;1813;52.016;8.714;2024-03-08T06:59:22;-16261.94;;;-139.71;88.83
3598;BME280;1813;52.016;8.714;2024-03-08T07:01:57;-16261.94;;;-139.71;88.60
3598;BME280;1813;52.016;8.714;2024-03-08T07:04:33;-16261.94;;;-139.71;88.52
3598;BME280;1813;52.016;8.714;2024-03-08T07:07:08;-16261.94;;;-139.71;88.30
3598;BME280;1813;52.016;8.714;2024-03-08T07:09:45;-16261.94;;;-139.71;87.72
3598;BME280;1813;52.016;8.714;2024-03-08T07:12:19;-16261.94;;;-139.71;86.90
3598;BME280;1813;52.016;8.714;2024-03-08T07:14:56;-16261.94;;;-139.71;86.71
3598;BME280;1813;52.016;8.714;2024-03-08T07:17:31;-16261.94;;;-139.71;85.82
3598;BME280;1813;52.016;8.714;2024-03-08T07:20:06;-16261.94;;;-139.71;84.92
3598;BME280;1813;52.016;8.714;2024-03-08T07:22:42;-16261.94;;;-139.71;84.06
3598;BME280;1813;52.016;8.714;2024-03-08T07:25:18;-16261.94;;;-139.71;83.32
3598;BME280;1813;52.016;8.714;2024-03-08T07:27:56;-16261.94;;;-139.71;82.49
3598;BME280;1813;52.016;8.714;2024-03-08T07:30:33;-16261.94;;;-139.71;82.32
3598;BME280;1813;52.016;8.714;2024-03-08T07:33:19;-16261.94;;;-139.71;81.58
3598;BME280;1813;52.016;8.714;2024-03-08T07:35:53;-16261.94;;;-139.71;80.76
3598;BME280;1813;52.016;8.714;2024-03-08T07:38:26;-16261.94;;;-139.71;80.46
3598;BME280;1813;52.016;8.714;2024-03-08T07:41:00;-16261.94;;;-139.71;79.77
3598;BME280;1813;52.016;8.714;2024-03-08T07:43:33;-16261.94;;;-139.71;78.64
3598;BME280;1813;52.016;8.714;2024-03-08T07:46:10;-16261.94;;;-139.71;76.78
3598;BME280;1813;52.016;8.714;2024-03-08T07:48:43;-16261.94;;;-139.71;76.23
3598;BME280;1813;52.016;8.714;2024-03-08T07:51:16;-16261.94;;;-139.71;75.45
3598;BME280;1813;52.016;8.714;2024-03-08T07:53:51;-16261.94;;;-139.71;74.02
3598;BME280;1813;52.016;8.714;2024-03-08T07:56:25;-16261.94;;;-139.71;74.20
3598;BME280;1813;52.016;8.714;2024-03-08T07:58:58;-16261.94;;;-139.71;74.40
3598;BME280;1813;52.016;8.714;2024-03-08T08:01:35;-16261.94;;;-139.71;73.79
3598;BME280;1813;52.016;8.714;2024-03-08T08:04:08;-16261.94;;;-139.71;74.39
3598;BME280;1813;52.016;8.714;2024-03-08T08:06:42;-16261.94;;;-139.71;73.55
3598;BME280;1813;52.016;8.714;2024-03-08T08:09:16;-16261.94;;;-139.71;72.21
3598;BME280;1813;52.016;8.714;2024-03-08T08:11:58;-16261.94;;;-139.71;73.60
3598;BME280;1813;52.016;8.714;2024-03-08T08:14:32;-16261.94;;;-139.71;73.81
3598;BME280;1813;52.016;8.714;2024-03-08T08:17:08;-16261.94;;;-139.71;72.81
3598;BME280;1813;52.016;8.714;2024-03-08T08:19:42;-16261.94;;;-139.71;70.31
3598;BME280;1813;52.016;8.714;2024-03-08T08:22:16;-16261.94;;;-139.71;70.45
3598;BME280;1813;52.016;8.714;2024-03-08T08:24:50;-16261.94;;;-139.71;71.19
3598;BME280;1813;52.016;8.714;2024-03-08T08:27:23;-16261.94;;;-139.71;71.15
3598;BME280;1813;52.016;8.714;2024-03-08T08:29:59;-16261.94;;;-139.71;70.50
3598;BME280;1813;52.016;8.714;2024-03-08T08:32:37;-16261.94;;;-139.71;67.67
3598;BME280;1813;52.016;8.714;2024-03-08T08:35:12;-16261.94;;;-139.71;67.16
3598;BME280;1813;52.016;8.714;2024-03-08T08:37:46;-16261.94;;;-139.71;66.99
3598;BME280;1813;52.016;8.714;2024-03-08T08:40:19;-16261.94;;;-139.71;66.11
3598;BME280;1813;52.016;8.714;2024-03-08T08:42:53;-16261.94;;;-139.71;65.84
3598;BME280;1813;52.016;8.714;2024-03-08T08:45:27;-16261.94;;;-139.71;65.35
3598;BME280;1813;52.016;8.714;2024-03-08T08:48:04;-16261.94;;;-139.71;65.06
3598;BME280;1813;52.016;8.714;2024-03-08T08:50:38;-16261.94;;;-139.71;64.29
3598;BME280;1813;52.016;8.714;2024-03-08T08:53:12;-16261.94;;;-139.71;63.79
3598;BME280;1813;52.016;8.714;2024-03-08T08:55:45;-16261.94;;;-139.71;62.97
3598;BME280;1813;52.016;8.714;2024-03-08T08:58:21;-16261.94;;;-139.71;62.69
3598;BME280;1813;52.016;8.714;2024-03-08T09:00:54;-16261.94;;;-139.71;61.59
3598;BME280;1813;52.016;8.714;2024-03-08T09:03:30;-16261.94;;;-139.71;62.36
3598;BME280;1813;52.016;8.714;2024-03-08T09:06:05;-16261.94;;;-139.71;62.32
3598;BME280;1813;52.016;8.714;2024-03-08T09:08:40;-16261.94;;;-139.71;62.57
3598;BME280;1813;52.016;8.714;2024-03-08T09:11:14;-16261.94;;;-139.71;61.84
3598;BME280;1813;52.016;8.714;2024-03-08T09:13:48;-16261.94;;;-139.71;62.02
3598;BME280;1813;52.016;8.714;2024-03-08T09:16:22;-16261.94;;;-139.71;61.59
3598;BME280;1813;52.016;8.714;2024-03-08T09:18:58;-16261.94;;;-139.71;60.93
3598;BME280;1813;52.016;8.714;2024-03-08T09:21:31;-16261.94;;;-139.71;58.75
3598;BME280;1813;52.016;8.714;2024-03-08T09:24:05;-16261.94;;;-139.71;59.52
3598;BME280;1813;52.016;8.714;2024-03-08T09:26:39;-16261.94;;;-139.71;59.23
3598;BME280;1813;52.016;8.714;2024-03-08T09:29:13;-16261.94;;;-139.71;59.62
3598;BME280;1813;52.016;8.714;2024-03-08T09:31:47;-16261.94;;;-139.71;58.37
3598;BME280;1813;52.016;8.714;2024-03-08T09:34:23;-16261.94;;;-139.71;59.60
3598;BME280;1813;52.016;8.714;2024-03-08T09:36:56;-16261.94;;;-139.71;58.24
3598;BME280;1813;52.016;8.714;2024-03-08T09:39:29;-16261.94;;;-139.71;59.54
3598;BME280;1813;52.016;8.714;2024-03-08T09:42:04;-16261.94;;;-139.71;58.56
3598;BME280;1813;52.016;8.714;2024-03-08T09:44:38;-16261.94;;;-139.71;59.97
3598;BME280;1813;52.016;8.714;2024-03-08T09:47:14;-16261.94;;;-139.71;56.96
3598;BME280;1813;52.016;8.714;2024-03-08T09:49:50;-16261.94;;;-139.71;58.27
3598;BME280;1813;52.016;8.714;2024-03-08T09:52:23;-16261.94;;;-139.71;57.78
3598;BME280;1813;52.016;8.714;2024-03-08T09:54:56;-16261.94;;;-139.71;55.62
3598;BME280;1813;52.016;8.714;2024-03-08T09:57:31;-16261.94;;;-139.71;55.26
3598;BME280;1813;52.016;8.714;2024-03-08T10:00:06;-16261.94;;;-139.71;55.23
3598;BME280;1813;52.016;8.714;2024-03-08T10:02:50;-16261.94;;;-139.71;55.33
3598;BME280;1813;52.016;8.714;2024-03-08T10:05:26;-16261.94;;;-139.71;55.54
3598;BME280;1813;52.016;8.714;2024-03-08T10:08:00;-16261.94;;;-139.71;56.49
3598;BME280;1813;52.016;8.714;2024-03-08T10:10:34;-16261.94;;;-139.71;57.37
3598;BME280;1813;52.016;8.714;2024-03-08T10:13:08;-16261.94;;;-139.71;54.54
3598;BME280;1813;52.016;8.714;2024-03-08T10:15:43;-16261.94;;;-139.71;55.44
3598;BME280;1813;52.016;8.714;2024-03-08T10:18:16;-16261.94;;;-139.71;56.40
3598;BME280;1813;52.016;8.714;2024-03-08T10:21:06;-16261.94;;;-139.71;55.51
3598;BME280;1813;52.016;8.714;2024-03-08T10:23:41;-16261.94;;;-139.71;55.11
3598;BME280;1813;52.016;8.714;2024-03-08T10:26:16;-16261.94;;;-139.71;54.95
3598;BME280;1813;52.016;8.714;2024-03-08T10:28:52;-16261.94;;;-139.71;51.48
3598;BME280;1813;52.016;8.714;2024-03-08T10:31:26;-16261.94;;;-139.71;53.64
3598;BME280;1813;52.016;8.714;2024-03-08T10:34:00;-16261.94;;;-139.71;52.22
3598;BME280;1813;52.016;8.714;2024-03-08T10:36:39;-16261.94;;;-139.71;51.62
3598;BME280;1813;52.016;8.714;2024-03-08T10:39:21;-16261.94;;;-139.71;50.39
3598;BME280;1813;52.016;8.714;2024-03-08T10:41:58;-16261.94;;;-139.71;51.95
3598;BME280;1813;52.016;8.714;2024-03-08T10:44:40;-16261.94;;;-139.71;50.41
3598;BME280;1813;52.016;8.714;2024-03-08T10:47:22;-16261.94;;;-139.71;49.98
3598;BME280;1813;52.016;8.714;2024-03-08T10:50:10;-16261.94;;;-139.71;48.51
3598;BME280;1813;52.016;8.714;2024-03-08T10:52:48;-16261.94;;;-139.71;49.46
3598;BME280;1813;52.016;8.714;2024-03-08T10:55:24;-16261.94;;;-139.71;50.65
3598;BME280;1813;52.016;8.714;2024-03-08T10:57:58;-16261.94;;;-139.71;50.41
3598;BME280;1813;52.016;8.714;2024-03-08T11:00:32;-16261.94;;;-139.71;49.70
3598;BME280;1813;52.016;8.714;2024-03-08T11:03:05;-16261.94;;;-139.71;52.16
3598;BME280;1813;52.016;8.714;2024-03-08T11:05:39;-16261.94;;;-139.71;51.45
3598;BME280;1813;52.016;8.714;2024-03-08T11:08:19;-16261.94;;;-139.71;50.30
3598;BME280;1813;52.016;8.714;2024-03-08T11:10:54;-16261.94;;;-139.71;48.49
3598;BME280;1813;52.016;8.714;2024-03-08T11:13:34;-16261.94;;;-139.71;51.14
3598;BME280;1813;52.016;8.714;2024-03-08T11:16:08;-16261.94;;;-139.71;50.93
3598;BME280;1813;52.016;8.714;2024-03-08T11:18:43;-16261.94;;;-139.71;52.64
3598;BME280;1813;52.016;8.714;2024-03-08T11:21:17;-16261.94;;;-139.71;50.25
3598;BME280;1813;52.016;8.714;2024-03-08T11:24:02;-16261.94;;;-139.71;51.87
3598;BME280;1813;52.016;8.714;2024-03-08T11:26:36;-16261.94;;;-139.71;52.48
3598;BME280;1813;52.016;8.714;2024-03-08T11:29:36;-16261.94;;;-139.71;52.25
3598;BME280;1813;52.016;8.714;2024-03-08T11:32:11;-16261.94;;;-139.71;51.43
3598;BME280;1813;52.016;8.714;2024-03-08T11:34:46;-16261.94;;;-139.71;50.39
3598;BME280;1813;52.016;8.714;2024-03-08T11:37:21;-16261.94;;;-139.71;51.10
3598;BME280;1813;52.016;8.714;2024-03-08T11:39:57;-16261.94;;;-139.71;50.16
3598;BME280;1813;52.016;8.714;2024-03-08T11:42:35;-16261.94;;;-139.71;50.71
3598;BME280;1813;52.016;8.714;2024-03-08T11:45:10;-16261.94;;;-139.71;49.50
3598;BME280;1813;52.016;8.714;2024-03-08T11:47:44;-16261.94;;;-139.71;48.88
3598;BME280;1813;52.016;8.714;2024-03-08T11:50:17;-16261.94;;;-139.71;49.37
3598;BME280;1813;52.016;8.714;2024-03-08T11:53:00;-16261.94;;;-139.71;49.34
3598;BME280;1813;52.016;8.714;2024-03-08T11:55:36;-16261.94;;;-139.71;49.91
3598;BME280;1813;52.016;8.714;2024-03-08T11:58:12;-16261.94;;;-139.71;48.01
3598;BME280;1813;52.016;8.714;2024-03-08T12:00:46;-16261.94;;;-139.71;49.38
3598;BME280;1813;52.016;8.714;2024-03-08T12:03:20;-16261.94;;;-139.71;48.05
3598;BME280;1813;52.016;8.714;2024-03-08T12:05:57;-16261.94;;;-139.71;47.91
3598;BME280;1813;52.016;8.714;2024-03-08T12:08:31;-16261.94;;;-139.71;49.24
3598;BME280;1813;52.016;8.714;2024-03-08T12:11:07;-16261.94;;;-139.71;48.29
3598;BME280;1813;52.016;8.714;2024-03-08T12:13:41;-16261.94;;;-139.71;48.92
3598;BME280;1813;52.016;8.714;2024-03-08T12:16:20;-16261.94;;;-139.71;47.39
3598;BME280;1813;52.016;8.714;2024-03-08T12:18:54;-16261.94;;;-139.71;47.70
3598;BME280;1813;52.016;8.714;2024-03-08T12:21:31;-16261.94;;;-139.71;49.10
3598;BME280;1813;52.016;8.714;2024-03-08T12:24:07;-16261.94;;;-139.71;47.87
3598;BME280;1813;52.016;8.714;2024-03-08T12:26:45;-16261.94;;;-139.71;45.95
3598;BME280;1813;52.016;8.714;2024-03-08T12:29:20;-16261.94;;;-139.71;46.18
3598;BME280;1813;52.016;8.714;2024-03-08T12:31:54;-16261.94;;;-139.71;46.68
3598;BME280;1813;52.016;8.714;2024-03-08T12:34:28;-16261.94;;;-139.71;47.24
3598;BME280;1813;52.016;8.714;2024-03-08T12:37:02;-16261.94;;;-139.71;46.80
3598;BME280;1813;52.016;8.714;2024-03-08T12:39:37;-16261.94;;;-139.71;46.13
3598;BME280;1813;52.016;8.714;2024-03-08T12:42:13;-16261.94;;;-139.71;46.00
3598;BME280;1813;52.016;8.714;2024-03-08T12:44:46;-16261.94;;;-139.71;46.56
3598;BME280;1813;52.016;8.714;2024-03-08T12:47:20;-16261.94;;;-139.71;46.72
3598;BME280;1813;52.016;8.714;2024-03-08T12:49:53;-16261.94;;;-139.71;47.09
3598;BME280;1813;52.016;8.714;2024-03-08T12:52:27;-16261.94;;;-139.71;50.60
3598;BME280;1813;52.016;8.714;2024-03-08T12:55:00;-16261.94;;;-139.71;50.85
3598;BME280;1813;52.016;8.714;2024-03-08T12:57:39;-16261.94;;;-139.71;50.22
3598;BME280;1813;52.016;8.714;2024-03-08T13:00:14;-16261.94;;;-139.71;50.37
3598;BME280;1813;52.016;8.714;2024-03-08T13:02:49;-16261.94;;;-139.71;50.54
3598;BME280;1813;52.016;8.714;2024-03-08T13:05:23;-16261.94;;;-139.71;51.13
3598;BME280;1813;52.016;8.714;2024-03-08T13:07:57;-16261.94;;;-139.71;50.97
3598;BME280;1813;52.016;8.714;2024-03-08T13:10:31;-16261.94;;;-139.71;51.42
3598;BME280;1813;52.016;8.714;2024-03-08T13:13:06;-16261.94;;;-139.71;53.09
3598;BME280;1813;52.016;8.714;2024-03-08T13:15:40;-16261.94;;;-139.71;52.56
3598;BME280;1813;52.016;8.714;2024-03-08T13:18:16;-16261.94;;;-139.71;52.73
3598;BME280;1813;52.016;8.714;2024-03-08T13:20:49;-16261.94;;;-139.71;51.69
3598;BME280;1813;52.016;8.714;2024-03-08T13:23:23;-16261.94;;;-139.71;52.70
3598;BME280;1813;52.016;8.714;2024-03-08T13:25:56;-16261.94;;;-139.71;52.32
3598;BME280;1813;52.016;8.714;2024-03-08T13:28:33;-16261.94;;;-139.71;52.07
3598;BME280;1813;52.016;8.714;2024-03-08T13:31:08;-16261.94;;;-139.71;51.73